createdAt,value
2018-06-11T00:00:41.012Z,70.18
2018-06-11T00:01:47.654Z,69.97
2018-06-11T00:02:53.590Z,70.18
2018-06-11T00:03:59.521Z,70.06
2018-06-11T00:05:05.562Z,70.78
2018-06-11T00:06:11.511Z,70.30
2018-06-11T00:07:17.452Z,70.69
2018-06-11T00:08:23.397Z,71.10
2018-06-11T00:09:29.497Z,71.44
2018-06-11T00:10:35.411Z,71.45
2018-06-11T00:11:41.354Z,70.72
2018-06-11T00:12:47.284Z,70.90
2018-06-11T00:13:53.202Z,71.40
2018-06-11T00:14:59.199Z,71.10
2018-06-11T00:16:05.226Z,71.38
2018-06-11T00:17:11.147Z,71.32
2018-06-11T00:18:16.837Z,71.60
2018-06-11T00:19:22.684Z,71.09
2018-06-11T00:20:28.635Z,71.44
2018-06-11T00:21:34.619Z,70.92
2018-06-11T00:22:40.544Z,70.89
2018-06-11T00:23:46.479Z,71.19
2018-06-11T00:24:52.422Z,71.83
2018-06-11T00:25:58.398Z,71.37
2018-06-11T00:27:04.355Z,70.98
2018-06-11T00:28:10.567Z,72.00
2018-06-11T00:29:16.499Z,71.81
2018-06-11T00:30:22.458Z,71.71
2018-06-11T00:31:28.395Z,71.71
2018-06-11T00:32:34.379Z,71.39
2018-06-11T00:33:40.347Z,71.08
2018-06-11T00:34:46.270Z,71.79
2018-06-11T00:35:52.594Z,71.36
2018-06-11T00:36:58.594Z,71.28
2018-06-11T00:38:04.594Z,71.96
2018-06-11T00:39:10.747Z,71.62
2018-06-11T00:40:16.721Z,71.50
2018-06-11T00:41:22.317Z,71.87
2018-06-11T00:42:28.170Z,72.39
2018-06-11T00:43:34.134Z,72.22
2018-06-11T00:44:40.059Z,72.45
2018-06-11T00:45:46.070Z,72.63
2018-06-11T00:46:52.001Z,72.36
2018-06-11T00:47:57.613Z,72.24
2018-06-11T00:49:03.286Z,72.68
2018-06-11T00:50:09.211Z,72.65
2018-06-11T00:51:15.142Z,72.70
2018-06-11T00:52:21.070Z,72.20
2018-06-11T00:53:27.424Z,72.00
2018-06-11T00:54:33.410Z,72.21
2018-06-11T00:55:56.113Z,72.76
2018-06-11T00:57:02.327Z,72.74
2018-06-11T00:58:08.296Z,72.95
2018-06-11T00:59:14.250Z,72.99
2018-06-11T01:00:20.226Z,72.17
2018-06-11T01:01:26.175Z,73.07
2018-06-11T01:02:32.138Z,72.73
2018-06-11T01:03:38.067Z,73.15
2018-06-11T01:04:44.012Z,73.09
2018-06-11T01:05:49.974Z,73.06
2018-06-11T01:06:55.918Z,73.44
2018-06-11T01:08:01.891Z,72.80
2018-06-11T01:09:09.041Z,72.81
2018-06-11T01:10:14.991Z,73.82
2018-06-11T01:11:21.070Z,73.46
2018-06-11T01:12:27.530Z,73.31
2018-06-11T01:13:33.958Z,72.83
2018-06-11T01:14:39.897Z,73.37
2018-06-11T01:15:45.856Z,73.75
2018-06-11T01:16:52.683Z,73.41
2018-06-11T01:17:58.611Z,73.23
2018-06-11T01:19:04.550Z,73.43
2018-06-11T01:20:10.470Z,72.62
2018-06-11T01:21:16.208Z,73.40
2018-06-11T01:22:22.211Z,73.27
2018-06-11T01:23:28.118Z,72.90
2018-06-11T01:24:34.066Z,73.14
2018-06-11T01:25:40.017Z,73.10
2018-06-11T01:26:46.065Z,72.20
2018-06-11T01:27:52.051Z,72.56
2018-06-11T01:28:58.052Z,72.42
2018-06-11T01:30:04.114Z,71.46
2018-06-11T01:31:10.120Z,71.39
2018-06-11T01:32:16.099Z,72.25
2018-06-11T01:33:22.062Z,70.99
2018-06-11T01:34:27.868Z,71.69
2018-06-11T01:35:33.803Z,70.87
2018-06-11T01:36:39.779Z,71.07
2018-06-11T01:37:45.818Z,71.04
2018-06-11T01:38:51.775Z,70.95
2018-06-11T01:39:57.578Z,70.86
2018-06-11T01:41:03.544Z,71.09
2018-06-11T01:42:09.164Z,71.43
2018-06-11T01:43:14.998Z,70.94
2018-06-11T01:44:20.973Z,71.82
2018-06-11T01:45:26.903Z,71.79
2018-06-11T01:46:32.831Z,71.90
2018-06-11T01:47:38.810Z,71.26
2018-06-11T01:48:44.742Z,71.97
2018-06-11T01:49:51.042Z,71.33
2018-06-11T01:50:56.984Z,71.40
2018-06-11T01:52:03.188Z,71.94
2018-06-11T01:53:08.966Z,71.33
2018-06-11T01:54:14.882Z,71.92
2018-06-11T01:55:20.899Z,71.42
2018-06-11T01:56:26.998Z,71.49
2018-06-11T01:57:32.989Z,71.78
2018-06-11T01:58:39.026Z,71.60
2018-06-11T01:59:44.962Z,71.38
2018-06-11T02:00:51.376Z,71.02
2018-06-11T02:01:57.175Z,71.13
2018-06-11T02:03:03.007Z,71.01
2018-06-11T02:04:08.931Z,71.52
2018-06-11T02:05:14.851Z,71.67
2018-06-11T02:06:20.854Z,71.66
2018-06-11T02:07:26.786Z,71.57
2018-06-11T02:08:32.711Z,71.60
2018-06-11T02:09:38.862Z,71.32
2018-06-11T02:10:44.838Z,70.76
2018-06-11T02:11:51.035Z,71.42
2018-06-11T02:12:56.986Z,71.41
2018-06-11T02:14:03.236Z,70.71
2018-06-11T02:15:09.185Z,70.88
2018-06-11T02:16:15.125Z,71.21
2018-06-11T02:17:20.855Z,71.42
2018-06-11T02:18:26.714Z,71.18
2018-06-11T02:19:32.663Z,71.61
2018-06-11T02:20:38.579Z,72.37
2018-06-11T02:21:44.510Z,71.80
2018-06-11T02:22:50.505Z,72.40
2018-06-11T02:23:56.114Z,72.09
2018-06-11T02:25:01.979Z,72.32
2018-06-11T02:26:07.938Z,72.93
2018-06-11T02:27:13.535Z,72.36
2018-06-11T02:28:19.399Z,72.50
2018-06-11T02:29:25.350Z,72.42
2018-06-11T02:30:31.014Z,73.29
2018-06-11T02:31:36.834Z,73.50
2018-06-11T02:32:42.429Z,73.21
2018-06-11T02:33:48.305Z,73.59
2018-06-11T02:34:54.258Z,72.78
2018-06-11T02:35:59.850Z,72.89
2018-06-11T02:37:05.735Z,73.25
2018-06-11T02:38:11.669Z,73.65
2018-06-11T02:39:17.688Z,73.56
2018-06-11T02:40:23.613Z,73.12
2018-06-11T02:41:29.618Z,73.51
2018-06-11T02:42:35.249Z,73.01
2018-06-11T02:43:41.102Z,73.04
2018-06-11T02:44:47.194Z,72.88
2018-06-11T02:45:53.118Z,72.51
2018-06-11T02:46:59.076Z,72.57
2018-06-11T02:48:05.054Z,72.06
2018-06-11T02:49:11.008Z,72.02
2018-06-11T02:50:16.985Z,71.98
2018-06-11T02:51:22.938Z,72.75
2018-06-11T02:52:28.871Z,72.54
2018-06-11T02:53:34.884Z,71.75
2018-06-11T02:54:40.867Z,72.30
2018-06-11T02:55:46.818Z,72.57
2018-06-11T02:56:52.757Z,71.78
2018-06-11T02:57:58.710Z,71.73
2018-06-11T02:59:04.686Z,71.80
2018-06-11T03:00:10.615Z,71.64
2018-06-11T03:01:16.333Z,71.69
2018-06-11T03:02:22.503Z,72.24
2018-06-11T03:03:28.146Z,71.89
2018-06-11T03:04:33.994Z,72.18
2018-06-11T03:05:39.943Z,72.61
2018-06-11T03:06:45.931Z,71.73
2018-06-11T03:07:51.875Z,71.90
2018-06-11T03:08:57.831Z,71.94
2018-06-11T03:10:03.965Z,72.45
2018-06-11T03:11:09.926Z,72.35
2018-06-11T03:12:15.894Z,71.63
2018-06-11T03:13:21.833Z,71.48
2018-06-11T03:14:27.757Z,71.43
2018-06-11T03:15:33.726Z,71.32
2018-06-11T03:16:39.945Z,71.56
2018-06-11T03:17:45.911Z,71.77
2018-06-11T03:18:51.880Z,71.67
2018-06-11T03:19:57.479Z,71.86
2018-06-11T03:21:03.392Z,71.12
2018-06-11T03:22:09.478Z,70.88
2018-06-11T03:23:15.427Z,71.19
2018-06-11T03:24:21.390Z,71.14
2018-06-11T03:25:27.345Z,71.71
2018-06-11T03:26:33.275Z,71.29
2018-06-11T03:27:39.181Z,71.44
2018-06-11T03:28:45.134Z,70.63
2018-06-11T03:29:51.066Z,70.63
2018-06-11T03:30:57.011Z,70.65
2018-06-11T03:32:03.540Z,70.98
2018-06-11T03:33:09.491Z,70.68
2018-06-11T03:34:15.494Z,70.93
2018-06-11T03:35:21.299Z,70.34
2018-06-11T03:36:27.232Z,70.24
2018-06-11T03:37:33.145Z,70.44
2018-06-11T03:38:39.070Z,70.00
2018-06-11T03:39:45.059Z,70.11
2018-06-11T03:40:51.004Z,70.41
2018-06-11T03:41:56.947Z,69.99
2018-06-11T03:43:03.481Z,70.32
2018-06-11T03:44:09.466Z,69.92
2018-06-11T03:45:15.444Z,70.00
2018-06-11T03:46:21.531Z,69.93
2018-06-11T03:47:27.467Z,70.59
2018-06-11T03:48:33.403Z,70.08
2018-06-11T03:49:39.334Z,70.77
2018-06-11T03:50:45.287Z,69.94
2018-06-11T03:51:51.216Z,69.82
2018-06-11T03:52:57.166Z,70.60
2018-06-11T03:54:03.111Z,69.80
2018-06-11T03:55:09.076Z,70.01
2018-06-11T03:56:15.601Z,70.18
2018-06-11T03:57:21.283Z,70.09
2018-06-11T03:58:27.140Z,69.88
2018-06-11T03:59:33.089Z,69.92
2018-06-11T04:00:39.029Z,69.24
2018-06-11T04:01:44.998Z,69.17
2018-06-11T04:02:50.979Z,69.16
2018-06-11T04:03:56.935Z,69.54
2018-06-11T04:05:02.886Z,68.74
2018-06-11T04:06:08.863Z,69.11
2018-06-11T04:07:15.171Z,69.19
2018-06-11T04:08:21.125Z,69.08
2018-06-11T04:09:28.317Z,68.78
2018-06-11T04:10:34.344Z,69.18
2018-06-11T04:11:42.280Z,68.48
2018-06-11T04:12:48.255Z,69.42
2018-06-11T04:13:54.202Z,68.95
2018-06-11T04:15:00.129Z,69.23
2018-06-11T04:16:06.282Z,69.12
2018-06-11T04:17:12.247Z,68.58
2018-06-11T04:18:19.342Z,68.43
2018-06-11T04:19:25.459Z,69.10
2018-06-11T04:20:32.144Z,68.42
2018-06-11T04:21:38.150Z,68.59
2018-06-11T04:22:44.216Z,68.30
2018-06-11T04:23:50.158Z,68.39
2018-06-11T04:24:56.109Z,69.02
2018-06-11T04:26:02.035Z,68.34
2018-06-11T04:27:08.391Z,68.00
2018-06-11T04:28:14.306Z,68.59
2018-06-11T04:29:20.252Z,68.36
2018-06-11T04:30:26.191Z,68.10
2018-06-11T04:31:32.150Z,67.58
2018-06-11T04:32:38.783Z,68.05
2018-06-11T04:33:44.768Z,67.03
2018-06-11T04:34:50.730Z,67.68
2018-06-11T04:35:56.702Z,67.31
2018-06-11T04:37:03.011Z,66.64
2018-06-11T04:38:09.704Z,67.11
2018-06-11T04:39:15.624Z,66.32
2018-06-11T04:40:21.608Z,67.17
2018-06-11T04:41:27.548Z,67.06
2018-06-11T04:42:33.443Z,66.41
2018-06-11T04:43:39.307Z,66.94
2018-06-11T04:44:45.238Z,66.39
2018-06-11T04:45:51.303Z,65.91
2018-06-11T04:46:57.300Z,66.35
2018-06-11T04:48:03.273Z,66.25
2018-06-11T04:49:09.517Z,66.48
2018-06-11T04:50:15.469Z,66.59
2018-06-11T04:51:21.475Z,65.63
2018-06-11T04:52:27.441Z,65.81
2018-06-11T04:53:33.676Z,65.86
2018-06-11T04:54:39.522Z,64.92
2018-06-11T04:55:45.498Z,64.50
2018-06-11T04:56:51.470Z,64.93
2018-06-11T04:57:57.422Z,64.66
2018-06-11T04:59:03.387Z,64.43
2018-06-11T05:00:09.366Z,64.56
2018-06-11T05:01:15.441Z,64.81
2018-06-11T05:02:21.432Z,65.29
2018-06-11T05:03:28.337Z,65.13
2018-06-11T05:04:34.405Z,64.56
2018-06-11T05:05:40.263Z,64.60
2018-06-11T05:06:46.831Z,64.69
2018-06-11T05:07:52.824Z,64.77
2018-06-11T05:08:58.775Z,65.61
2018-06-11T05:10:04.846Z,65.71
2018-06-11T05:11:10.955Z,64.75
2018-06-11T05:12:16.914Z,65.45
2018-06-11T05:13:22.891Z,65.26
2018-06-11T05:14:28.834Z,65.22
2018-06-11T05:15:34.877Z,65.24
2018-06-11T05:16:40.489Z,65.13
2018-06-11T05:17:46.020Z,65.56
2018-06-11T05:18:51.876Z,64.72
2018-06-11T05:19:57.826Z,64.85
2018-06-11T05:21:03.774Z,64.89
2018-06-11T05:22:09.716Z,64.74
2018-06-11T05:23:15.308Z,65.16
2018-06-11T05:24:21.166Z,64.62
2018-06-11T05:25:27.106Z,64.66
2018-06-11T05:26:33.038Z,65.23
2018-06-11T05:27:39.203Z,65.46
2018-06-11T05:28:45.232Z,65.06
2018-06-11T05:29:51.412Z,65.56
2018-06-11T05:30:57.358Z,65.83
2018-06-11T05:32:03.575Z,65.46
2018-06-11T05:33:11.173Z,65.64
2018-06-11T05:34:17.156Z,65.84
2018-06-11T05:35:23.122Z,65.38
2018-06-11T05:36:29.230Z,65.32
2018-06-11T05:37:35.212Z,65.89
2018-06-11T05:38:41.183Z,65.23
2018-06-11T05:39:47.138Z,65.42
2018-06-11T05:40:53.120Z,65.51
2018-06-11T05:41:59.041Z,66.21
2018-06-11T05:43:05.475Z,65.96
2018-06-11T05:44:11.459Z,66.33
2018-06-11T05:45:17.402Z,66.30
2018-06-11T05:46:23.370Z,66.54
2018-06-11T05:47:29.348Z,66.70
2018-06-11T05:48:35.266Z,66.54
2018-06-11T05:49:41.197Z,65.99
2018-06-11T05:50:47.143Z,66.03
2018-06-11T05:51:53.111Z,65.70
2018-06-11T05:52:59.197Z,65.41
2018-06-11T05:54:05.203Z,65.48
2018-06-11T05:55:11.159Z,65.77
2018-06-11T05:56:17.147Z,65.56
2018-06-11T05:57:23.118Z,65.61
2018-06-11T05:58:29.051Z,65.47
2018-06-11T05:59:35.078Z,65.56
2018-06-11T06:00:41.043Z,66.43
2018-06-11T06:01:47.054Z,66.25
2018-06-11T06:02:53.019Z,66.13
2018-06-11T06:03:58.999Z,66.10
2018-06-11T06:05:04.999Z,65.72
2018-06-11T06:06:10.984Z,66.11
2018-06-11T06:07:16.907Z,66.46
2018-06-11T06:08:22.853Z,66.47
2018-06-11T06:09:28.807Z,66.50
2018-06-11T06:10:34.751Z,65.62
2018-06-11T06:11:40.694Z,66.32
2018-06-11T06:12:46.611Z,65.63
2018-06-11T06:13:52.550Z,66.05
2018-06-11T06:14:58.485Z,65.45
2018-06-11T06:16:04.461Z,65.97
2018-06-11T06:17:10.426Z,65.26
2018-06-11T06:18:16.415Z,65.59
2018-06-11T06:19:22.403Z,65.46
2018-06-11T06:20:28.459Z,64.80
2018-06-11T06:21:34.415Z,64.62
2018-06-11T06:22:40.430Z,64.90
2018-06-11T06:23:46.405Z,64.79
2018-06-11T06:24:52.363Z,64.34
2018-06-11T06:25:58.311Z,64.40
2018-06-11T06:27:04.279Z,64.31
2018-06-11T06:28:10.207Z,64.32
2018-06-11T06:29:17.879Z,63.98
2018-06-11T06:30:24.937Z,63.95
2018-06-11T06:31:32.510Z,64.62
2018-06-11T06:32:38.115Z,63.85
2018-06-11T06:33:44.007Z,63.75
2018-06-11T06:34:50.085Z,64.72
2018-06-11T06:35:56.222Z,63.86
2018-06-11T06:37:02.183Z,64.45
2018-06-11T06:38:08.243Z,63.83
2018-06-11T06:39:14.656Z,63.81
2018-06-11T06:40:20.802Z,64.53
2018-06-11T06:41:26.791Z,64.53
2018-06-11T06:42:33.230Z,64.55
2018-06-11T06:43:39.230Z,64.29
2018-06-11T06:44:45.384Z,64.28
2018-06-11T06:45:51.407Z,63.97
2018-06-11T06:46:57.558Z,63.44
2018-06-11T06:48:03.657Z,64.22
2018-06-11T06:49:09.796Z,63.31
2018-06-11T06:50:15.835Z,63.02
2018-06-11T06:51:21.763Z,64.04
2018-06-11T06:52:27.428Z,63.17
2018-06-11T06:53:33.319Z,62.83
2018-06-11T06:54:39.469Z,63.29
2018-06-11T06:55:45.392Z,63.14
2018-06-11T06:56:51.847Z,62.73
2018-06-11T06:57:57.807Z,62.94
2018-06-11T06:59:03.734Z,62.15
2018-06-11T07:00:09.682Z,61.40
2018-06-11T07:01:15.834Z,60.81
2018-06-11T07:02:21.847Z,61.44
2018-06-11T07:03:27.796Z,60.54
2018-06-11T07:04:33.740Z,60.56
2018-06-11T07:05:39.707Z,61.18
2018-06-11T07:06:45.699Z,60.94
2018-06-11T07:07:52.182Z,60.83
2018-06-11T07:08:58.224Z,60.90
2018-06-11T07:10:04.325Z,61.50
2018-06-11T07:11:10.415Z,60.85
2018-06-11T07:12:16.407Z,61.02
2018-06-11T07:13:22.363Z,61.59
2018-06-11T07:14:28.318Z,61.24
2018-06-11T07:15:34.307Z,60.40
2018-06-11T07:16:40.306Z,60.65
2018-06-11T07:17:46.275Z,60.32
2018-06-11T07:18:52.898Z,60.27
2018-06-11T07:19:58.946Z,60.03
2018-06-11T07:21:04.916Z,60.75
2018-06-11T07:22:10.871Z,59.79
2018-06-11T07:23:16.903Z,60.18
2018-06-11T07:24:23.325Z,59.69
2018-06-11T07:25:29.359Z,59.54
2018-06-11T07:26:35.475Z,60.19
2018-06-11T07:27:41.803Z,59.49
2018-06-11T07:28:48.012Z,59.76
2018-06-11T07:29:54.095Z,60.11
2018-06-11T07:31:00.456Z,60.21
2018-06-11T07:32:06.229Z,60.73
2018-06-11T07:33:12.115Z,61.54
2018-06-11T07:34:18.095Z,61.37
2018-06-11T07:35:24.451Z,60.73
2018-06-11T07:36:30.617Z,61.77
2018-06-11T07:37:36.607Z,62.04
2018-06-11T07:38:42.532Z,62.21
2018-06-11T07:39:48.489Z,61.64
2018-06-11T07:40:54.750Z,62.46
2018-06-11T07:42:01.832Z,61.99
2018-06-11T07:43:09.518Z,62.26
2018-06-11T07:44:15.733Z,61.87
2018-06-11T07:45:22.054Z,62.72
2018-06-11T07:46:28.009Z,62.14
2018-06-11T07:47:34.064Z,62.83
2018-06-11T07:48:39.731Z,63.08
2018-06-11T07:49:45.779Z,62.73
2018-06-11T07:50:51.757Z,62.68
2018-06-11T07:51:57.915Z,63.47
2018-06-11T07:53:03.901Z,62.87
2018-06-11T07:54:09.841Z,63.19
2018-06-11T07:55:15.810Z,62.86
2018-06-11T07:56:21.785Z,63.04
2018-06-11T07:57:27.699Z,61.84
2018-06-11T07:58:33.458Z,61.95
2018-06-11T07:59:39.417Z,61.91
2018-06-11T08:00:45.381Z,61.81
2018-06-11T08:01:51.337Z,61.16
2018-06-11T08:02:57.313Z,61.83
2018-06-11T08:04:03.465Z,62.07
2018-06-11T08:05:09.410Z,62.11
2018-06-11T08:06:15.409Z,61.80
2018-06-11T08:07:21.384Z,62.32
2018-06-11T08:08:27.315Z,62.12
2018-06-11T08:09:33.323Z,61.41
2018-06-11T08:10:39.320Z,61.78
2018-06-11T08:11:45.282Z,61.50
2018-06-11T08:12:51.243Z,61.37
2018-06-11T08:13:57.659Z,61.07
2018-06-11T08:15:03.653Z,60.18
2018-06-11T08:16:09.969Z,60.62
2018-06-11T08:17:15.918Z,59.61
2018-06-11T08:18:21.943Z,60.24
2018-06-11T08:19:27.935Z,59.86
2018-06-11T08:20:34.007Z,59.59
2018-06-11T08:21:40.010Z,59.31
2018-06-11T08:22:46.023Z,60.03
2018-06-11T08:23:51.955Z,59.20
2018-06-11T08:24:57.938Z,59.09
2018-06-11T08:26:03.917Z,59.40
2018-06-11T08:27:09.855Z,58.77
2018-06-11T08:28:15.801Z,59.14
2018-06-11T08:29:21.771Z,58.11
2018-06-11T08:30:27.694Z,58.43
2018-06-11T08:31:33.654Z,57.39
2018-06-11T08:32:39.606Z,57.56
2018-06-11T08:33:45.627Z,56.16
2018-06-11T08:34:51.729Z,56.26
2018-06-11T08:35:57.934Z,55.40
2018-06-11T08:37:04.190Z,55.13
2018-06-11T08:38:10.205Z,55.47
2018-06-11T08:39:16.188Z,55.10
2018-06-11T08:40:22.130Z,54.64
2018-06-11T08:41:28.109Z,54.27
2018-06-11T08:42:34.085Z,53.24
2018-06-11T08:43:40.070Z,52.63
2018-06-11T08:44:46.015Z,52.88
2018-06-11T08:45:51.959Z,52.34
2018-06-11T08:46:57.921Z,53.00
2018-06-11T08:48:03.903Z,53.60
2018-06-11T08:49:09.873Z,53.41
2018-06-11T08:50:15.829Z,52.96
2018-06-11T08:51:21.770Z,52.88
2018-06-11T08:52:27.854Z,52.62
2018-06-11T08:53:33.839Z,53.11
2018-06-11T08:54:39.778Z,53.29
2018-06-11T08:55:45.719Z,53.18
2018-06-11T08:56:51.686Z,53.37
2018-06-11T08:57:57.644Z,53.11
2018-06-11T08:59:03.651Z,53.53
2018-06-11T09:00:10.094Z,52.86
2018-06-11T09:01:16.272Z,53.28
2018-06-11T09:02:22.343Z,53.09
2018-06-11T09:03:28.667Z,52.60
2018-06-11T09:04:34.727Z,52.83
2018-06-11T09:05:40.704Z,53.02
2018-06-11T09:06:46.910Z,52.04
2018-06-11T09:07:52.879Z,52.52
2018-06-11T09:08:59.214Z,52.42
2018-06-11T09:10:05.236Z,52.30
2018-06-11T09:11:11.259Z,52.55
2018-06-11T09:12:17.235Z,51.85
2018-06-11T09:13:23.197Z,52.43
2018-06-11T09:14:29.135Z,52.60
2018-06-11T09:15:35.183Z,52.57
2018-06-11T09:16:41.120Z,52.59
2018-06-11T09:17:47.058Z,51.70
2018-06-11T09:18:53.035Z,51.71
2018-06-11T09:19:58.995Z,52.14
2018-06-11T09:21:04.991Z,52.03
2018-06-11T09:22:10.990Z,51.90
2018-06-11T09:23:16.942Z,51.63
2018-06-11T09:24:23.042Z,51.59
2018-06-11T09:25:29.002Z,51.49
2018-06-11T09:26:35.006Z,50.22
2018-06-11T09:27:41.314Z,50.37
2018-06-11T09:28:47.438Z,49.51
2018-06-11T09:29:53.405Z,48.62
2018-06-11T09:30:59.424Z,48.23
2018-06-11T09:32:05.559Z,48.49
2018-06-11T09:33:11.629Z,47.45
2018-06-11T09:34:18.446Z,48.14
2018-06-11T09:35:24.885Z,47.50
2018-06-11T09:36:30.818Z,47.29
2018-06-11T09:37:37.176Z,46.29
2018-06-11T09:38:43.117Z,45.75
2018-06-11T09:39:49.054Z,46.02
2018-06-11T09:40:54.998Z,45.94
2018-06-11T09:42:00.936Z,46.68
2018-06-11T09:43:06.963Z,46.28
2018-06-11T09:44:13.712Z,45.22
2018-06-11T09:45:19.727Z,45.47
2018-06-11T09:46:25.714Z,45.97
2018-06-11T09:47:31.647Z,45.08
2018-06-11T09:48:37.621Z,46.01
2018-06-11T09:49:43.237Z,46.05
2018-06-11T09:50:49.210Z,46.32
2018-06-11T09:51:55.143Z,45.46
2018-06-11T09:53:01.100Z,45.08
2018-06-11T09:54:07.056Z,45.10
2018-06-11T09:55:13.015Z,44.94
2018-06-11T09:56:19.006Z,45.70
2018-06-11T09:57:24.979Z,45.83
2018-06-11T09:58:31.804Z,44.77
2018-06-11T09:59:39.436Z,44.64
2018-06-11T10:00:46.984Z,44.17
2018-06-11T10:01:53.727Z,44.09
2018-06-11T10:03:00.196Z,44.13
2018-06-11T10:04:06.837Z,43.72
2018-06-11T10:05:12.841Z,44.10
2018-06-11T10:06:19.530Z,44.39
2018-06-11T10:07:25.863Z,43.76
2018-06-11T10:08:32.358Z,43.02
2018-06-11T10:09:38.851Z,42.42
2018-06-11T10:10:45.326Z,42.16
2018-06-11T10:11:51.799Z,41.70
2018-06-11T10:12:58.164Z,42.75
2018-06-11T10:14:05.348Z,42.23
2018-06-11T10:15:11.818Z,42.32
2018-06-11T10:16:18.984Z,41.06
2018-06-11T10:17:25.291Z,41.53
2018-06-11T10:18:36.436Z,41.45
2018-06-11T10:19:42.563Z,41.10
2018-06-11T10:20:49.242Z,40.97
2018-06-11T10:21:56.810Z,41.07
2018-06-11T10:23:03.606Z,41.91
2018-06-11T10:24:09.697Z,41.62
2018-06-11T10:25:16.009Z,41.69
2018-06-11T10:26:22.430Z,41.05
2018-06-11T10:27:28.387Z,41.79
2018-06-11T10:28:34.893Z,41.71
2018-06-11T10:29:42.202Z,40.49
2018-06-11T10:30:48.588Z,41.07
2018-06-11T10:31:54.822Z,40.10
2018-06-11T10:33:02.015Z,39.90
2018-06-11T10:34:08.498Z,38.86
2018-06-11T10:35:16.014Z,39.32
2018-06-11T10:36:22.713Z,38.54
2018-06-11T10:37:29.007Z,38.24
2018-06-11T10:38:35.404Z,38.61
2018-06-11T10:39:41.960Z,37.64
2018-06-11T10:40:48.702Z,37.17
2018-06-11T10:41:55.048Z,37.77
2018-06-11T10:43:01.434Z,38.19
2018-06-11T10:44:07.479Z,37.04
2018-06-11T10:45:13.146Z,37.72
2018-06-11T10:46:19.058Z,37.80
2018-06-11T10:47:24.686Z,38.02
2018-06-11T10:48:31.037Z,38.28
2018-06-11T10:49:37.824Z,38.01
2018-06-11T10:50:44.201Z,38.60
2018-06-11T10:51:50.860Z,38.88
2018-06-11T10:52:57.327Z,38.82
2018-06-11T10:54:04.156Z,37.83
2018-06-11T10:55:12.277Z,38.84
2018-06-11T10:56:18.244Z,38.93
2018-06-11T10:57:25.047Z,37.79
2018-06-11T10:58:31.377Z,38.50
2018-06-11T10:59:37.337Z,39.44
2018-06-11T11:00:43.304Z,39.26
2018-06-11T11:01:49.875Z,40.24
2018-06-11T11:02:55.898Z,40.30
2018-06-11T11:04:01.937Z,40.32
2018-06-11T11:05:08.650Z,39.96
2018-06-11T11:06:14.916Z,40.71
2018-06-11T11:07:20.903Z,40.87
2018-06-11T11:08:26.918Z,40.76
2018-06-11T11:09:32.859Z,42.05
2018-06-11T11:10:42.439Z,42.57
2018-06-11T11:11:48.510Z,42.46
2018-06-11T11:12:54.515Z,42.74
2018-06-11T11:14:00.494Z,42.66
2018-06-11T11:15:06.548Z,42.41
2018-06-11T11:16:12.694Z,43.39
2018-06-11T11:17:18.662Z,43.79
2018-06-11T11:18:24.427Z,43.26
2018-06-11T11:19:30.275Z,43.58
2018-06-11T11:20:42.512Z,44.56
2018-06-11T11:21:48.499Z,44.35
2018-06-11T11:23:00.708Z,43.87
2018-06-11T11:24:06.672Z,44.41
2018-06-11T11:25:15.247Z,45.27
2018-06-11T11:26:21.404Z,44.92
2018-06-11T11:27:27.401Z,45.21
2018-06-11T11:28:33.415Z,45.32
2018-06-11T11:29:39.474Z,43.72
2018-06-11T11:30:45.936Z,43.97
2018-06-11T11:31:51.875Z,44.05
2018-06-11T11:32:57.818Z,43.80
2018-06-11T11:34:03.808Z,44.77
2018-06-11T11:35:09.772Z,45.16
2018-06-11T11:36:15.746Z,45.42
2018-06-11T11:37:21.777Z,45.29
2018-06-11T11:38:28.516Z,45.93
2018-06-11T11:39:35.177Z,45.65
2018-06-11T11:40:41.581Z,46.02
2018-06-11T11:41:48.940Z,46.07
2018-06-11T11:42:55.396Z,46.51
2018-06-11T11:44:01.674Z,46.08
2018-06-11T11:45:08.299Z,45.79
2018-06-11T11:46:15.448Z,45.66
2018-06-11T11:47:23.750Z,46.43
2018-06-11T11:48:30.670Z,45.87
2018-06-11T11:49:37.251Z,46.45
2018-06-11T11:50:46.148Z,45.75
2018-06-11T11:51:53.325Z,45.84
2018-06-11T11:53:00.327Z,45.86
2018-06-11T11:54:07.997Z,46.09
2018-06-11T11:55:14.370Z,45.74
2018-06-11T11:56:21.693Z,45.63
2018-06-11T11:57:27.618Z,46.22
2018-06-11T11:58:33.555Z,46.24
2018-06-11T11:59:40.026Z,45.14
2018-06-11T12:00:45.977Z,46.13
2018-06-11T12:01:51.978Z,45.96
2018-06-11T12:02:57.755Z,45.29
2018-06-11T12:04:04.078Z,45.51
2018-06-11T12:05:10.024Z,45.71
2018-06-11T12:06:15.935Z,45.95
2018-06-11T12:07:21.904Z,45.86
2018-06-11T12:08:27.875Z,46.13
2018-06-11T12:09:33.818Z,46.68
2018-06-11T12:10:39.882Z,46.52
2018-06-11T12:11:45.824Z,46.49
2018-06-11T12:12:51.837Z,46.47
2018-06-11T12:13:57.746Z,46.82
2018-06-11T12:15:04.046Z,46.23
2018-06-11T12:16:09.999Z,46.80
2018-06-11T12:17:15.947Z,45.88
2018-06-11T12:18:21.975Z,45.74
2018-06-11T12:19:27.983Z,45.12
2018-06-11T12:20:33.898Z,45.16
2018-06-11T12:21:39.825Z,45.69
2018-06-11T12:22:45.748Z,45.97
2018-06-11T12:23:52.331Z,46.17
2018-06-11T12:24:58.249Z,44.99
2018-06-11T12:26:04.590Z,44.58
2018-06-11T12:27:10.580Z,45.11
2018-06-11T12:28:17.151Z,45.29
2018-06-11T12:29:23.103Z,45.45
2018-06-11T12:30:30.156Z,45.69
2018-06-11T12:31:36.093Z,44.74
2018-06-11T12:32:42.227Z,45.03
2018-06-11T12:33:48.166Z,45.42
2018-06-11T12:34:54.148Z,44.69
2018-06-11T12:36:00.281Z,45.62
2018-06-11T12:37:06.521Z,44.68
2018-06-11T12:38:12.134Z,45.49
2018-06-11T12:39:17.998Z,45.36
2018-06-11T12:40:24.061Z,45.42
2018-06-11T12:41:30.052Z,45.30
2018-06-11T12:42:36.205Z,45.16
2018-06-11T12:43:42.297Z,46.31
2018-06-11T12:44:49.690Z,46.49
2018-06-11T12:45:56.176Z,46.45
2018-06-11T12:47:03.045Z,44.77
2018-06-11T12:48:09.811Z,44.72
2018-06-11T12:49:16.671Z,44.83
